x

8761927 - New Canal, La (nwcl1) Weather Station

3:54am - Fri 24th Oct 2014 All times are CDT. -5 hours from GMT.

  • Wind
    14mph, 15mph gusts
  • Sea Temp 69°f
  • Air Temp 64°f
  • Sea Pressure 1018.9mb
  • 8761927 - New Canal, La
  • 8761927 - New Canal, La

More Historic Weather Station data

Upgrade to MSW Pro to gain access to the past 30 days of data for over 8000 Wavebouys and Weather Stations around the globe.

Join Pro

Comparision Forecast

View Surf forecast
   
Fri 10/24 3:54am 14 15 mph 1018.9mb 69f 64f
3:48am 13 16 mph 1018.9mb 69f 64f
3:42am 13 14 mph 1018.9mb 69f 64f
3:36am 13 14 mph 1018.9mb 69f 65f
3:30am 13 15 mph 1018.9mb 69f 65f
3:24am 14 16 mph 1018.8mb 69f 65f
3:18am 14 17 mph 1018.7mb 70f 65f
3:12am 14 15 mph 1018.8mb 70f 65f
3:06am 13 16 mph 1018.6mb 70f 65f
3:00am 13 15 mph 1018.5mb 70f 65f
2:54am 13 15 mph 1018.4mb 70f 65f
2:48am 14 16 mph 1018.4mb 70f 65f
2:42am 14 15 mph 1018.5mb 70f 65f
2:36am 14 16 mph 1018.5mb 70f 66f
2:30am 14 15 mph 1018.4mb 70f 66f
2:24am 14 15 mph 1018.4mb 70f 66f
2:18am 14 16 mph 1018.4mb 70f 66f
2:12am 14 15 mph 1018.4mb 70f 66f
2:06am 14 15 mph 1018.4mb 70f 66f
2:00am 14 15 mph 1018.4mb 70f 66f
1:54am 14 15 mph 1018.4mb 70f 66f
1:48am 15 17 mph 1018.2mb 70f 66f
1:42am 14 15 mph 1018.3mb 70f 66f
1:36am 16 17 mph 1018.3mb 70f 66f
1:30am 15 17 mph 1018.2mb 70f 67f
1:24am 15 17 mph 1018.1mb 70f 67f
1:18am 15 17 mph 1018.2mb 70f 67f
1:12am 15 17 mph 1018.3mb 70f 67f
1:06am 15 17 mph 1018.3mb 70f 67f
1:00am 16 18 mph 1018.4mb 70f 67f
12:54am 17 20 mph 1018.4mb 70f 67f
12:48am 16 17 mph 1018.5mb 70f 67f
12:42am 15 17 mph 1018.6mb 70f 67f
12:36am 16 18 mph 1018.5mb 70f 67f
12:30am 15 17 mph 1018.5mb 71f 67f
12:24am 16 17 mph 1018.5mb 71f 67f
12:18am 14 16 mph 1018.6mb 71f 67f
12:12am 17 18 mph 1018.6mb 71f 67f
12:06am 15 17 mph 1018.6mb 71f 68f
12:00am 15 17 mph 1018.6mb 71f 68f
Thu 10/23 11:54pm 16 18 mph 1018.6mb 71f 68f
11:48pm 15 17 mph 1018.6mb 71f 69f
11:42pm 15 16 mph 1018.6mb 71f 69f
11:36pm 15 16 mph 1018.6mb 71f 69f
11:30pm 14 16 mph 1018.5mb 71f 69f
11:24pm 15 16 mph 1018.5mb 71f 69f
11:18pm 14 16 mph 1018.6mb 71f 69f
11:12pm 14 16 mph 1018.7mb 71f 69f
11:06pm 14 15 mph 1018.6mb 71f 69f
11:00pm 14 15 mph 1018.6mb 71f 69f
10:54pm 13 14 mph 1018.7mb 71f 69f
10:48pm 11 14 mph 1018.7mb 71f 69f
10:42pm 11 13 mph 1018.8mb 71f 69f
10:36pm 11 13 mph 1018.8mb 71f 69f
10:30pm 10 11 mph 1018.8mb 71f 69f
10:24pm 10 11 mph 1018.8mb 71f 69f
10:18pm 11 13 mph 1018.9mb 71f 69f
10:12pm 10 11 mph 1019mb 71f 69f
10:06pm 2 3 mph 1019mb 71f 68f
10:00pm  -  mph 1019mb 71f 68f
9:54pm 1
mph
1019mb 71f 68f
9:48pm  -  mph 1019mb 71f 68f
9:42pm 1 2 mph 1019mb 71f 68f
9:36pm 1
mph
1019mb 71f 68f
9:30pm 1
mph
1018.9mb 71f 68f
9:24pm  -  1 mph 1018.9mb 71f 68f
9:18pm  -  mph 1018.9mb 71f 69f
9:12pm  -  1 mph 1018.9mb 71f 69f
9:06pm  -  1 mph 1018.7mb 71f 68f
9:00pm  -  1 mph 1018.7mb 71f 69f
8:54pm  -  1 mph 1018.7mb 71f 69f
8:48pm  -  1 mph 1018.7mb 71f 69f
8:42pm  -  mph 1018.6mb 71f 69f
8:36pm 2
mph
1018.7mb 71f 69f
8:30pm  -  1 mph 1018.6mb 71f 69f
8:24pm  -  1 mph 1018.5mb 71f 69f
8:18pm  -  1 mph 1018.5mb 71f 69f
8:12pm  -  1 mph 1018.3mb 71f 69f
8:06pm  -  1 mph 1018.3mb 71f 68f
8:00pm 2
mph
1018.3mb 71f 68f
7:54pm  -  mph 1018.4mb 71f 68f
7:48pm 1 2 mph 1018.4mb 71f 68f
7:42pm  -  2 mph 1018.2mb 71f 68f
7:36pm  -  1 mph 1018.2mb 71f 68f
7:30pm  -  1 mph 1018.2mb 71f 68f
7:24pm  -  1 mph 1018.1mb 71f 68f
7:18pm 1 2 mph 1018mb 71f 68f
7:12pm  -  2 mph 1017.9mb 71f 68f
7:06pm  -  2 mph 1017.8mb 71f 69f
7:00pm  -  3 mph 1017.9mb 71f 69f
6:54pm  -  1 mph 1017.7mb 71f 69f
6:48pm 1 2 mph 1017.8mb 71f 69f
6:42pm  -  2 mph 1017.7mb 71f 69f
6:36pm  -  2 mph 1017.8mb 71f 69f
6:30pm  -  1 mph 1017.7mb 71f 69f
6:24pm  -  1 mph 1017.9mb 71f 70f
6:18pm  -  mph 1017.9mb 71f 70f
6:12pm  -  1 mph 1017.8mb 71f 70f
6:06pm 2 3 mph 1017.9mb 71f 70f
6:00pm 2
mph
1018mb 71f 70f
5:54pm 1 2 mph 1018mb 71f 70f
5:48pm 1 3 mph 1018mb 71f 70f
5:42pm 2 5 mph 1017.9mb 71f 70f
5:36pm 2 5 mph 1017.9mb 71f 70f
5:30pm 2 3 mph 1017.7mb 71f 70f
5:24pm 3 5 mph 1017.5mb 71f 70f
5:18pm 2 3 mph 1017.5mb 71f 70f
5:12pm  -  1 mph 1017.6mb 71f 70f
5:06pm 2 3 mph 1017.5mb 71f 70f
5:00pm 1 5 mph 1017.4mb 71f 71f
4:54pm 2 3 mph 1017.3mb 71f 70f
4:48pm 2 5 mph 1017.4mb 71f 70f
4:42pm 1 5 mph 1017.5mb 71f 70f
4:36pm 2 6 mph 1017.4mb 71f 70f
4:30pm 2 6 mph 1017.5mb 71f 70f
4:24pm 3 6 mph 1017.4mb 71f 70f
4:18pm 2 5 mph 1017.5mb 71f 70f
4:12pm 3 6 mph 1017.6mb 71f 70f
4:06pm 6 8 mph 1017.6mb 71f 70f
4:00pm 6 7 mph 1017.6mb 71f 70f
3:54pm 7 8 mph 1017.6mb 71f 70f
3:48pm 6 8 mph 1017.6mb 71f 70f
3:42pm 6 8 mph 1017.5mb 71f 70f
3:36pm 6 7 mph 1017.5mb 71f 70f
3:30pm 6 7 mph 1017.4mb 71f 69f
3:24pm 7 8 mph 1017.4mb 71f 69f
3:18pm 7 8 mph 1017.5mb 71f 69f
3:12pm 7 8 mph 1017.5mb 71f 69f
3:06pm 8 9 mph 1017.5mb 71f 69f
3:00pm 8 9 mph 1017.6mb 71f 69f
2:54pm 8
mph
1017.9mb 71f 70f
2:48pm 8 10 mph 1017.9mb 71f 69f
2:42pm 8 9 mph 1017.8mb 71f 69f
2:36pm 8 9 mph 1017.8mb 71f 69f
2:30pm 8 10 mph 1017.9mb 71f 69f
2:24pm 9 11 mph 1017.9mb 71f 69f
2:18pm 10 13 mph 1018mb 71f 69f
2:12pm 10 13 mph 1018.1mb 71f 69f
2:06pm 10 13 mph 1018.3mb 71f 69f
2:00pm 11 14 mph 1018.3mb 71f 69f
1:54pm 13 15 mph 1018.2mb 71f 68f
1:48pm 13 15 mph 1018.1mb 71f 69f
1:42pm 13 16 mph 1018.2mb 71f 69f
1:36pm 11 14 mph 1018.4mb 71f 68f
1:30pm 13 14 mph 1018.5mb 71f 68f
1:24pm 11 15 mph 1018.5mb 71f 68f
1:18pm 11 13 mph 1018.6mb 71f 68f
1:12pm 13 14 mph 1018.6mb 71f 68f
1:06pm 11 14 mph 1018.7mb 71f 68f
1:00pm 13 15 mph 1018.8mb 71f 68f
12:54pm 13 14 mph 1018.8mb 70f 68f
12:48pm 13 15 mph 1018.9mb 70f 67f
12:42pm 13 14 mph 1019.1mb 70f 67f
12:36pm 11 14 mph 1019.2mb 70f 67f
12:30pm 11 14 mph 1019.3mb 70f 67f
12:24pm 13 14 mph 1019.4mb 70f 67f
12:18pm 13 15 mph 1019.4mb 70f 67f
12:12pm 13 14 mph 1019.5mb 70f 66f
12:06pm 13 14 mph 1019.7mb 70f 66f
12:00pm 11 14 mph 1019.8mb 70f 66f
11:54am 11 13 mph 1019.9mb 70f 66f
11:48am 11 14 mph 1019.9mb 70f 65f
11:42am 10 14 mph 1019.9mb 70f 65f
11:36am 11 14 mph 1020mb 70f 65f
11:30am 11 13 mph 1020.2mb 70f 65f
11:24am 11 14 mph 1020.2mb 70f 65f
11:18am 11 13 mph 1020.2mb 70f 65f
11:12am 10 13 mph 1020.3mb 70f 65f
11:06am 9 11 mph 1020.4mb 70f 65f
11:00am 11 13 mph 1020.3mb 70f 64f
10:54am 10 13 mph 1020.3mb 69f 64f
10:48am 11 14 mph 1020.1mb 69f 64f
10:42am 11 14 mph 1020.1mb 69f 64f
10:36am 11 13 mph 1020.2mb 69f 64f
10:30am 10 13 mph 1020.2mb 69f 64f
10:24am 11 14 mph 1020.3mb 69f 64f
10:18am 11 13 mph 1020.2mb 69f 64f
10:12am 10 13 mph 1020.3mb 69f 64f
10:06am 10 13 mph 1020.3mb 69f 63f
10:00am 9 13 mph 1020.4mb 69f 63f
9:54am 11 14 mph 1020.2mb 69f 63f
9:48am 11 14 mph 1020.2mb 69f 63f
9:42am 11 14 mph 1020.2mb 69f 62f
9:36am 11 14 mph 1020.2mb 69f 62f
9:30am 13 15 mph 1020mb 69f 62f
9:24am 13 15 mph 1020mb 69f 62f
9:18am 13 15 mph 1020mb 69f 62f
9:12am 14 16 mph 1020mb 69f 62f
9:06am 14 16 mph 1019.8mb 69f 62f
9:00am 15 18 mph 1019.7mb 69f 62f
8:54am 15 18 mph 1019.7mb 69f 61f
8:48am 14 17 mph 1019.6mb 69f 62f
8:42am 15 17 mph 1019.6mb 69f 62f
8:36am 16 17 mph 1019.5mb 69f 62f
8:30am 17 21 mph 1019.3mb 69f 62f
8:24am 17 21 mph 1019.3mb 69f 62f
8:18am 17 20 mph 1019.1mb 69f 62f
8:12am 18 21 mph 1019mb 69f 62f
8:06am 17 21 mph 1019mb 69f 62f
8:00am 18 22 mph 1019mb 69f 63f
7:54am 17 21 mph 1018.8mb 69f 63f
7:48am 18 22 mph 1018.7mb 69f 63f
7:42am 18 22 mph 1018.6mb 69f 63f
7:36am 17 20 mph 1018.7mb 69f 63f
7:30am 16 20 mph 1018.6mb 70f 63f
7:24am 17 21 mph 1018.6mb 69f 63f
7:18am 18 21 mph 1018.5mb 70f 63f
7:12am 18 20 mph 1018.5mb 70f 63f
7:06am 17 20 mph 1018.4mb 70f 64f
7:00am 18 22 mph 1018.4mb 70f 64f
6:54am 17 20 mph 1018.5mb 70f 64f
6:48am 17 21 mph 1018.5mb 70f 64f
6:42am 17 20 mph 1018.5mb 70f 64f
6:36am 17 20 mph 1018.5mb 70f 64f
6:30am 17 20 mph 1018.5mb 70f 64f
6:24am 18 20 mph 1018.4mb 70f 64f
6:18am 18 21 mph 1018.3mb 70f 64f
6:12am 17 22 mph 1018.3mb 70f 64f
6:06am 17 21 mph 1018.3mb 70f 65f
6:00am 18 21 mph 1018.2mb 70f 64f
5:54am 17 20 mph 1018.2mb 70f 65f
5:48am 17 21 mph 1018.2mb 70f 65f
5:42am 17 20 mph 1018.1mb 70f 65f
5:36am 16 18 mph 1018.1mb 70f 65f
5:30am 18 22 mph 1018mb 70f 65f
5:24am 20 22 mph 1018mb 70f 65f
5:18am 20 22 mph 1017.9mb 70f 65f
5:12am 20 23 mph 1017.9mb 70f 65f
5:06am 18 22 mph 1017.8mb 70f 65f
5:00am 20 23 mph 1017.7mb 70f 65f
4:54am 21 23 mph 1017.7mb 70f 65f
4:48am 21 23 mph 1017.8mb 70f 65f
4:42am 20 23 mph 1017.8mb 70f 65f
4:36am 21 23 mph 1017.8mb 70f 65f
4:30am 21 23 mph 1017.8mb 70f 65f
4:24am 21 24 mph 1017.8mb 70f 65f
4:18am 21 23 mph 1017.8mb 70f 66f
4:12am 21 24 mph 1017.6mb 70f 66f
4:06am 21 24 mph 1017.7mb 70f 66f
4:00am 21 24 mph 1017.8mb 70f 66f
3:54am 20 23 mph 1017.8mb 70f 66f
3:48am 21 23 mph 1018mb 70f 66f
3:42am 22 24 mph 1018mb 70f 66f
3:36am 22 24 mph 1018mb 70f 66f
3:30am 21 24 mph 1018mb 70f 66f
3:24am 22 26 mph 1017.9mb 71f 66f
3:18am 22 24 mph 1018mb 71f 66f
3:12am 22 25 mph 1018mb 70f 66f
3:06am 22 24 mph 1018mb 71f 67f
3:00am 23 28 mph 1017.9mb 71f 66f
2:54am 23 25 mph 1017.9mb 71f 66f
2:48am 24 28 mph 1017.7mb 71f 67f
2:42am 24 28 mph 1017.7mb 71f 67f
2:36am 23 25 mph 1017.7mb 71f 67f
2:30am 22 25 mph 1017.7mb 71f 67f
2:24am 22 24 mph 1017.6mb 71f 67f
2:18am 24 28 mph 1017.5mb 71f 67f
2:12am 24 26 mph 1017.7mb 71f 67f
2:06am 22 24 mph 1017.8mb 71f 67f
2:00am 22 25 mph 1017.9mb 71f 67f
1:54am 23 29 mph 1017.9mb 71f 67f
1:48am 22 25 mph 1018mb 71f 67f
1:42am 23 25 mph 1018mb 71f 67f
1:36am 22 24 mph 1018.1mb 71f 67f
1:30am 24 28 mph 1018mb 71f 67f
1:24am 23 26 mph 1018.1mb 71f 67f
1:18am 23 26 mph 1018.1mb 71f 68f
1:12am 23 26 mph 1018.1mb 71f 68f
1:06am 23 26 mph 1018.2mb 71f 68f
1:00am 22 28 mph 1018.2mb 71f 69f
12:54am 22 26 mph 1018.3mb 71f 69f
12:48am 24 29 mph 1018.2mb 71f 69f
12:42am 24 28 mph 1018.1mb 71f 69f
12:36am 24 28 mph 1018.1mb 71f 69f
12:30am 24 29 mph 1018.2mb 71f 70f
12:24am 23 28 mph 1018.3mb 71f 70f
12:18am 23 26 mph 1018.3mb 71f 70f
12:12am 24 28 mph 1018.3mb 71f 70f
12:06am 23 26 mph 1018.4mb 71f 70f
12:00am 22 26 mph 1018.4mb 71f 70f
Wed 10/22 11:54pm 22 25 mph 1018.4mb 71f 70f
11:48pm 23 24 mph 1018.4mb 71f 70f
11:42pm 22 24 mph 1018.4mb 71f 71f
11:36pm 21 25 mph 1018.5mb 72f 71f
11:30pm 22 24 mph 1018.6mb 71f 71f
11:24pm 22 26 mph 1018.6mb 71f 71f
11:18pm 21 24 mph 1018.6mb 72f 71f
11:12pm 21 23 mph 1018.6mb 72f 71f
11:06pm 20 23 mph 1018.7mb 72f 71f
11:00pm 20 22 mph 1018.7mb 72f 71f
10:54pm 21 23 mph 1018.6mb 72f 71f
10:48pm 21 23 mph 1018.6mb 72f 71f
10:42pm 21 24 mph 1018.6mb 72f 72f
10:36pm 22 25 mph 1018.6mb 72f 71f
10:30pm 21 23 mph 1018.6mb 72f 72f
10:24pm 22 24 mph 1018.6mb 72f 72f
10:18pm 22 24 mph 1018.7mb 72f 72f
10:12pm 23 25 mph 1018.7mb 72f 72f
10:06pm 18 22 mph 1018.7mb 72f 72f
10:00pm 16 20 mph 1018.7mb 72f 72f
9:54pm 17 21 mph 1018.6mb 72f 72f
9:48pm 16 18 mph 1018.6mb 72f 73f
9:42pm 17 21 mph 1018.5mb 72f 73f
9:36pm 16 20 mph 1018.5mb 72f 73f
9:30pm 16 18 mph 1018.6mb 72f 73f
9:24pm 15 18 mph 1018.5mb 72f 73f
9:18pm 17 18 mph 1018.3mb 72f 73f
9:12pm 17 22 mph 1018.2mb 72f 73f
9:06pm 15 18 mph 1018.2mb 72f 74f
9:00pm 14 17 mph 1018.2mb 72f 74f
8:54pm 14 16 mph 1018.1mb 73f 73f
8:48pm 16 17 mph 1018mb 73f 73f
8:42pm 16 18 mph 1017.9mb 73f 74f
8:36pm 16 17 mph 1017.9mb 73f 74f
8:30pm 6 16 mph 1018mb 73f 71f
8:24pm 2 3 mph 1017.9mb 73f 71f
8:18pm 2 3 mph 1017.8mb 73f 71f
8:12pm  -  mph 1017.8mb 73f 70f
8:06pm  -  mph 1017.8mb 73f 70f
8:00pm  -  3 mph 1017.8mb 73f 71f
7:54pm  -  3 mph 1017.8mb 73f 71f
7:48pm 2
mph
1017.8mb 73f 72f
7:42pm 1 2 mph 1017.7mb 73f 72f
7:36pm 2 3 mph 1017.7mb 73f 74f
7:30pm 3
mph
1017.7mb 73f 74f
7:24pm 2 3 mph 1017.6mb 73f 74f
7:18pm 2 3 mph 1017.6mb 73f 74f
7:12pm 2 3 mph 1017.5mb 73f 74f
7:06pm 3
mph
1017.5mb 73f 74f
7:00pm 3 5 mph 1017.4mb 73f 74f
6:54pm 3 5 mph 1017.3mb 73f 74f
6:48pm 5
mph
1017.3mb 73f 74f
6:42pm 5 6 mph 1017.3mb 73f 74f
6:36pm 5
mph
1017.3mb 73f 74f
6:30pm 2
mph
1017.4mb 73f 74f
6:24pm 2 5 mph 1017.4mb 73f 74f
6:18pm 3
mph
1017.3mb 73f 74f
6:12pm 2 3 mph 1017.3mb 73f 74f
6:06pm 3
mph
1017.3mb 73f 74f
6:00pm 2 3 mph 1017.2mb 73f 74f
5:54pm 2
mph
1017.2mb 73f 75f
5:48pm 2
mph
1017.2mb 73f 75f
5:42pm 2 3 mph 1017.2mb 73f 75f
5:36pm  -  mph 1017.2mb 73f 76f
5:30pm 1 2 mph 1017.1mb 73f 75f
5:24pm 2
mph
1017.1mb 73f 75f
5:18pm 2
mph
1017.1mb 73f 76f
5:12pm 2 3 mph 1017.1mb 73f 75f
5:06pm 2 3 mph 1017.1mb 73f 75f
5:00pm 2 3 mph 1017.1mb 73f 75f
4:54pm 2 3 mph 1017.1mb 73f 75f
4:48pm 2 3 mph 1017.1mb 73f 75f
4:42pm 1 3 mph 1017mb 73f 75f
4:36pm 3 5 mph 1017mb 73f 75f
4:30pm 3 6 mph 1017mb 73f 75f
4:24pm 3 5 mph 1017mb 73f 75f
4:18pm 3 6 mph 1017.1mb 73f 75f
4:12pm 2 5 mph 1017.1mb 73f 75f
4:06pm 3 5 mph 1017.1mb 73f 74f
4:00pm 3 5 mph 1017.1mb 73f 74f
3:54pm 3 5 mph 1017.1mb 73f 74f
3:48pm 3 5 mph 1017.2mb 73f 74f
3:42pm 3 5 mph 1017.2mb 73f 74f
3:36pm 5 6 mph 1017.2mb 73f 74f
3:30pm 5
mph
1017.3mb 72f 74f
3:24pm 5 6 mph 1017.4mb 72f 74f
3:18pm 5
mph
1017.4mb 72f 74f
3:12pm 3 6 mph 1017.5mb 72f 74f
3:06pm 5
mph
1017.6mb 72f 74f
3:00pm 5 6 mph 1017.6mb 72f 74f
2:54pm 6
mph
1017.6mb 72f 74f
2:48pm 6
mph
1017.6mb 72f 74f
2:42pm 6
mph
1017.6mb 72f 74f
2:36pm 6
mph
1017.6mb 72f 74f
2:30pm 6 7 mph 1017.6mb 72f 74f
2:24pm 6 7 mph 1017.7mb 72f 74f
2:18pm 8 9 mph 1017.6mb 72f 74f
2:12pm 8 9 mph 1017.6mb 72f 74f
2:06pm 8 9 mph 1017.7mb 72f 73f
2:00pm 8 9 mph 1017.7mb 72f 73f
1:54pm 9 10 mph 1017.7mb 72f 73f
1:48pm 10 11 mph 1017.7mb 72f 73f
1:42pm 10 11 mph 1017.9mb 72f 73f
1:36pm 10 11 mph 1017.9mb 72f 73f
1:30pm 11 13 mph 1018mb 72f 73f
1:24pm 11 13 mph 1018.1mb 72f 73f
1:18pm 11 14 mph 1018.1mb 72f 73f
1:12pm 11 14 mph 1018.2mb 72f 73f
1:06pm 13 14 mph 1018.2mb 72f 73f
1:00pm 13 14 mph 1018.4mb 72f 73f
12:54pm 13 15 mph 1018.5mb 72f 73f
12:48pm 13 14 mph 1018.6mb 71f 73f
12:42pm 13 14 mph 1018.7mb 71f 73f
12:36pm 14 15 mph 1018.9mb 71f 73f
12:30pm 13 15 mph 1019mb 71f 72f
12:24pm 14 15 mph 1019.1mb 71f 72f
12:18pm 14 15 mph 1019.2mb 71f 72f
12:12pm 14 15 mph 1019.3mb 71f 72f
12:06pm 14 15 mph 1019.4mb 71f 72f
12:00pm 13 15 mph 1019.5mb 71f 72f
11:54am 14 17 mph 1019.5mb 71f 72f
11:48am 14 16 mph 1019.5mb 71f 72f
11:42am 15 17 mph 1019.5mb 71f 72f
11:36am 15 17 mph 1019.6mb 71f 72f
11:30am 14 17 mph 1019.6mb 71f 71f
11:24am 13 15 mph 1019.7mb 71f 71f
11:18am 13 15 mph 1019.8mb 71f 71f
11:12am 14 15 mph 1019.7mb 71f 71f
11:06am 13 14 mph 1019.7mb 71f 71f
11:00am 14 15 mph 1019.6mb 71f 71f
10:54am 14 16 mph 1019.5mb 71f 71f
10:48am 14 16 mph 1019.5mb 71f 71f
10:42am 15 16 mph 1019.5mb 71f 70f
10:36am 14 15 mph 1019.5mb 71f 70f
10:30am 15 17 mph 1019.4mb 71f 70f
10:24am 15 17 mph 1019.4mb 71f 70f
10:18am 15 17 mph 1019.4mb 71f 70f
10:12am 14 16 mph 1019.4mb 71f 70f
10:06am 14 16 mph 1019.4mb 71f 69f
10:00am 15 17 mph 1019.4mb 71f 69f
9:54am 16 17 mph 1019.4mb 71f 69f
9:48am 16 17 mph 1019.3mb 71f 69f
9:42am 16 18 mph 1019.3mb 71f 69f
9:36am 16 20 mph 1019.3mb 71f 69f
9:30am 17 20 mph 1019.3mb 71f 69f
9:24am 17 20 mph 1019.2mb 71f 69f
9:18am 17 20 mph 1019.1mb 71f 69f
9:12am 17 21 mph 1019mb 71f 69f
9:06am 17 21 mph 1019mb 71f 69f
9:00am 18 21 mph 1018.9mb 71f 69f
8:54am 17 20 mph 1018.9mb 71f 69f
8:48am 20 22 mph 1018.8mb 71f 69f
8:42am 18 21 mph 1018.9mb 71f 69f
8:36am 17 20 mph 1018.8mb 71f 69f
8:30am 17 20 mph 1018.7mb 71f 69f
8:24am 18 21 mph 1018.7mb 71f 69f
8:18am 17 20 mph 1018.6mb 71f 69f
8:12am 15 17 mph 1018.6mb 71f 69f
8:06am 16 18 mph 1018.5mb 71f 69f
8:00am 16 18 mph 1018.4mb 71f 69f
7:54am 18 20 mph 1018.3mb 71f 69f
7:48am 17 21 mph 1018.2mb 71f 69f
7:42am 18 21 mph 1018.2mb 71f 69f
7:36am 18 21 mph 1018mb 71f 69f
7:30am 20 21 mph 1017.9mb 71f 69f
7:24am 18 21 mph 1017.9mb 71f 68f
7:18am 18 22 mph 1017.8mb 71f 68f
7:12am 17 21 mph 1017.9mb 71f 68f
7:06am 18 21 mph 1017.8mb 71f 68f
7:00am 18 22 mph 1017.7mb 71f 68f
6:54am 18 22 mph 1017.6mb 71f 68f
6:48am 17 20 mph 1017.6mb 71f 68f
6:42am 18 22 mph 1017.6mb 71f 68f
6:36am 18 22 mph 1017.6mb 71f 68f
6:30am 17 20 mph 1017.5mb 71f 69f
6:24am 17 21 mph 1017.6mb 71f 69f
6:18am 16 18 mph 1017.5mb 71f 69f
6:12am 17 20 mph 1017.4mb 71f 69f
6:06am 16 18 mph 1017.5mb 71f 70f
6:00am 15 17 mph 1017.5mb 71f 70f
5:54am 14 17 mph 1017.5mb 71f 70f
5:48am 15 17 mph 1017.4mb 71f 70f
5:42am 15 17 mph 1017.4mb 71f 70f
5:36am 15 17 mph 1017.3mb 71f 69f
5:30am 15 17 mph 1017.3mb 71f 69f
5:24am 15 17 mph 1017.3mb 71f 69f
5:18am 15 17 mph 1017.3mb 71f 69f
5:12am 14 16 mph 1017.3mb 71f 69f
5:06am 14 15 mph 1017.3mb 71f 69f
5:00am 14 15 mph 1017.2mb 71f 70f
4:54am 14 16 mph 1017.1mb 71f 70f
4:48am 13 15 mph 1017.2mb 71f 70f
4:42am 11 14 mph 1017.2mb 71f 70f
4:36am 11 13 mph 1017.2mb 71f 70f
4:30am 11 13 mph 1017.1mb 71f 70f
4:24am 10 13 mph 1017.1mb 71f 70f
4:18am 13 14 mph 1017mb 71f 70f
4:12am 11 14 mph 1017mb 71f 70f
4:06am 13 14 mph 1016.9mb 72f 70f
4:00am 13 15 mph 1016.8mb 71f 70f
3:54am 13 15 mph 1016.8mb 72f 71f
3:48am 14 16 mph 1016.7mb 72f 71f
3:42am 14 16 mph 1016.7mb 72f 71f
3:36am 15 16 mph 1016.7mb 72f 71f
3:30am 15 16 mph 1016.7mb 72f 71f
3:24am 15 17 mph 1016.7mb 72f 71f
3:18am 15 17 mph 1016.8mb 72f 71f
3:12am 15 17 mph 1016.8mb 72f 72f
3:06am 16 18 mph 1016.7mb 72f 72f
3:00am 16 18 mph 1016.6mb 72f 72f
2:54am 17 20 mph 1016.6mb 72f 72f
2:48am 17 20 mph 1016.6mb 72f 72f
2:42am 17 21 mph 1016.5mb 72f 72f
2:36am 16 17 mph 1016.6mb 72f 72f
2:30am 15 16 mph 1016.6mb 72f 72f
2:24am 14 16 mph 1016.6mb 72f 71f
2:18am 14 15 mph 1016.7mb 72f 71f
2:12am 14 15 mph 1016.6mb 72f 71f
2:06am 15 17 mph 1016.6mb 72f 71f
2:00am 13 14 mph 1016.7mb 72f 72f
1:54am 10 11 mph 1016.8mb 72f 71f
1:48am 11 13 mph 1016.8mb 72f 71f
1:42am 10 11 mph 1016.8mb 72f 71f
1:36am 10 11 mph 1016.8mb 72f 71f
1:30am 11 13 mph 1016.8mb 72f 71f
1:24am 10 11 mph 1016.8mb 72f 71f
1:18am 11 13 mph 1016.7mb 72f 71f
1:12am 10 13 mph 1016.7mb 72f 72f
1:06am 10 11 mph 1016.8mb 72f 72f
1:00am 9 10 mph 1016.8mb 72f 72f
12:54am 10 11 mph 1016.7mb 72f 72f
12:48am 8 9 mph 1016.7mb 72f 72f
12:42am 9 10 mph 1016.8mb 72f 73f
12:36am 10 11 mph 1016.8mb 72f 73f
12:30am 9 10 mph 1016.9mb 72f 73f
12:24am 10 11 mph 1017mb 72f 73f
12:18am 10 11 mph 1017mb 72f 73f
12:12am 10 11 mph 1017mb 72f 73f
12:06am 10 11 mph 1017mb 72f 73f
12:00am 10 11 mph 1016.9mb 72f 73f
Tue 10/21 11:54pm 10
mph
1017mb 72f 73f
11:48pm 3 8 mph 1017.2mb 72f 71f
11:42pm 1 3 mph 1017.3mb 72f 70f
11:36pm 2 3 mph 1017.3mb 72f 69f
11:30pm 2
mph
1017.4mb 72f 68f
11:24pm 3
mph
1017.5mb 72f 68f
11:18pm 2
mph
1017.5mb 72f 69f
11:12pm  -  1 mph 1017.3mb 73f 70f
11:06pm  -  mph 1017.4mb 73f 70f
11:00pm  -  mph 1017.3mb 72f 70f
10:54pm  -  1 mph 1017.4mb 73f 70f
10:48pm  -  mph 1017.4mb 73f 70f
10:42pm 1
mph
1017.4mb 73f 70f
10:36pm 2 3 mph 1017.5mb 73f 70f
10:30pm 3 5 mph 1017.5mb 73f 70f
10:24pm 1 2 mph 1017.4mb 73f 70f
10:18pm 2 3 mph 1017.4mb 73f 71f
10:12pm 3 5 mph 1017.4mb 73f 70f
10:06pm 3 5 mph 1017.4mb 73f 70f
10:00pm 5 7 mph 1017.4mb 73f 70f
9:54pm 5 6 mph 1017.3mb 73f 70f
9:48pm 3 6 mph 1017.2mb 73f 70f
9:42pm 1 2 mph 1017.2mb 73f 72f
9:36pm 3 5 mph 1017mb 73f 74f
9:30pm 5 6 mph 1016.9mb 73f 75f
9:24pm 6
mph
1016.9mb 73f 74f
9:18pm 6 7 mph 1016.8mb 73f 75f
9:12pm 7 8 mph 1016.7mb 73f 75f
9:06pm 7 8 mph 1016.6mb 73f 75f
9:00pm 8
mph
1016.5mb 73f 75f
8:54pm 6 7 mph 1016.5mb 73f 75f
8:48pm 6 7 mph 1016.5mb 73f 75f
8:42pm 6
mph
1016.4mb 73f 75f
8:36pm 6
mph
1016.4mb 73f 75f
8:30pm 6 7 mph 1016.2mb 73f 75f
8:24pm 5 6 mph 1016.2mb 73f 75f
8:18pm 5
mph
1016.2mb 73f 75f
8:12pm 5
mph
1016.2mb 73f 74f
8:06pm 3
mph
1016.2mb 73f 75f
8:00pm 2 3 mph 1016.2mb 73f 75f
7:54pm 2 3 mph 1016.1mb 73f 75f
7:48pm 5 6 mph 1016mb 73f 75f
7:42pm 5
mph
1016mb 73f 75f
7:36pm 5
mph
1015.9mb 73f 75f
7:30pm 3 5 mph 1015.9mb 73f 75f
7:24pm 2
mph
1015.8mb 73f 75f
7:18pm 1 2 mph 1015.8mb 73f 75f
7:12pm 2
mph
1015.7mb 73f 75f
7:06pm 1 2 mph 1015.6mb 73f 75f
7:00pm 2
mph
1015.6mb 73f 75f
6:54pm 2 3 mph 1015.5mb 73f 75f
6:48pm 2
mph
1015.5mb 73f 75f
6:42pm 1 2 mph 1015.5mb 73f 75f
6:36pm 2
mph
1015.5mb 73f 75f
6:30pm 1 2 mph 1015.4mb 73f 76f
6:24pm  -  1 mph 1015.4mb 73f 76f
6:18pm  -  1 mph 1015.4mb 73f 77f
6:12pm  -  mph 1015.3mb 73f 78f
6:06pm  -  2 mph 1015.3mb 73f 78f
6:00pm  -  2 mph 1015.3mb 73f 78f
5:54pm 1 2 mph 1015.2mb 73f 77f
5:48pm 2 3 mph 1015.2mb 73f 76f
5:42pm 3
mph
1015.2mb 73f 77f
5:36pm 3 5 mph 1015.2mb 73f 77f
5:30pm 3
mph
1015.2mb 73f 77f
5:24pm 5
mph
1015.2mb 73f 77f
5:18pm 2 3 mph 1015.2mb 73f 78f
5:12pm 2 5 mph 1015.2mb 73f 78f
5:06pm 3 6 mph 1015.3mb 73f 77f
5:00pm 3 5 mph 1015.3mb 73f 77f
4:54pm 2 3 mph 1015.3mb 73f 77f
4:48pm 2
mph
1015.3mb 73f 77f
4:42pm 2
mph
1015.4mb 73f 77f
4:36pm 1 2 mph 1015.4mb 73f 76f
4:30pm  -  1 mph 1015.5mb 73f 76f
4:24pm 1
mph
1015.5mb 73f 75f
4:18pm 2
mph
1015.5mb 73f 75f
4:12pm 2
mph
1015.5mb 73f 74f
4:06pm 2 3 mph 1015.5mb 73f 74f
4:00pm 2
mph
1015.6mb 73f 75f
3:54pm 1 2 mph 1015.7mb 73f 74f
3:48pm 1 2 mph 1015.7mb 72f 74f
3:42pm 2 3 mph 1015.7mb 73f 74f
3:36pm 2 3 mph 1015.8mb 73f 74f
3:30pm 2
mph
1015.9mb 72f 74f
3:24pm 2
mph
1015.9mb 72f 74f
3:18pm 2 3 mph 1016mb 72f 73f
3:12pm 2 3 mph 1016mb 72f 73f
3:06pm 3 5 mph 1016mb 72f 73f
3:00pm 3 5 mph 1016mb 72f 73f
2:54pm 3 5 mph 1016.1mb 72f 73f
2:48pm 3
mph
1016.2mb 72f 73f
2:42pm 5 6 mph 1016.1mb 72f 73f
2:36pm 6 7 mph 1016.1mb 72f 73f
2:30pm 6
mph
1016.2mb 72f -
2:24pm 6 7 mph 1016.2mb 72f -
2:18pm 6 7 mph 1016.3mb 72f 74f
2:12pm 7 8 mph 1016.3mb 72f 73f
2:06pm 7 8 mph 1016.3mb 72f 73f
2:00pm 8 9 mph 1016.4mb 72f 73f
1:54pm 8 9 mph 1016.4mb 72f 73f
1:48pm 8 9 mph 1016.5mb 72f 73f
1:42pm 9
mph
1016.6mb 72f 73f
1:36pm 9 10 mph 1016.7mb 72f 73f
1:30pm 8 9 mph 1016.8mb 72f 72f
1:24pm 9 10 mph 1016.9mb 72f 72f
1:18pm 10 11 mph 1017mb 72f 72f
1:12pm 10 11 mph 1017.1mb 72f 72f
1:06pm 10 11 mph 1017.2mb 72f 72f
1:00pm 10 11 mph 1017.3mb 72f 72f
12:54pm 10 11 mph 1017.4mb 72f 72f
12:48pm 10 13 mph 1017.4mb 72f 72f
12:42pm 11 13 mph 1017.5mb 72f 71f
12:36pm 10 11 mph 1017.7mb 72f 71f
12:30pm 11 13 mph - 72f -
12:24pm 11 13 mph - 72f -
12:18pm 11 13 mph 1017.9mb 71f 71f
12:12pm 10 11 mph 1018mb 71f 71f
12:06pm 10 11 mph 1018.1mb 71f 71f
12:00pm 10 11 mph 1018.2mb 71f 71f
11:54am 10 11 mph 1018.3mb 71f 71f
11:48am 10 11 mph 1018.3mb 71f 71f
11:42am 11 13 mph 1018.4mb 71f 70f
11:36am 11 13 mph 1018.4mb 71f 70f
11:30am 11 13 mph 1018.4mb 71f 70f
11:24am 11 13 mph 1018.4mb 71f 70f
11:18am 11 13 mph 1018.5mb 71f 70f
11:12am 10 11 mph 1018.5mb 71f 70f
11:06am 10 11 mph 1018.6mb 71f 70f
11:00am 10 11 mph 1018.5mb 71f 69f
10:54am 10 13 mph 1018.5mb 71f 69f
10:48am 10 13 mph 1018.5mb 71f 69f
10:42am 10 11 mph 1018.5mb 71f 69f
10:36am 10 13 mph 1018.5mb 71f 69f
10:30am 13 14 mph 1018.4mb 71f 69f
10:24am 13 14 mph 1018.4mb 71f 69f
10:18am 13 14 mph 1018.4mb 71f 69f
10:12am 13 14 mph 1018.4mb 71f 69f
10:06am 13 15 mph 1018.5mb 71f 69f
10:00am 13 15 mph 1018.4mb 71f 69f
9:54am 14 15 mph 1018.3mb 71f 69f
9:48am 14 15 mph 1018.2mb 71f 69f
9:42am 14 16 mph 1018.2mb 71f 69f
9:36am 15 17 mph 1018.2mb 71f 68f
9:30am 15 16 mph 1018.1mb 71f 69f
9:24am 15 17 mph 1018.1mb 71f 69f
9:18am 15 17 mph 1018.1mb 71f 69f
9:12am 14 17 mph 1018.1mb 71f 68f
9:06am 15 17 mph 1018mb 71f 68f
9:00am 14 16 mph 1018.1mb 71f 68f
8:54am 14 16 mph 1018mb 71f 68f
8:48am 14 16 mph 1018mb 71f 68f
8:42am 14 16 mph 1018mb 71f 68f
8:36am 14 16 mph 1018mb 71f 68f
8:30am 14 15 mph 1017.9mb 71f 68f
8:24am 14 15 mph 1017.8mb 71f 68f
8:18am 13 15 mph 1017.8mb 71f 68f
8:12am 14 15 mph 1017.7mb 71f 68f
8:06am 14 15 mph 1017.7mb 71f 68f
8:00am 13 15 mph 1017.7mb 71f 68f
7:54am 13 14 mph 1017.6mb 71f 68f
7:48am 13 15 mph 1017.6mb 71f 68f
7:42am 13 14 mph 1017.6mb 71f 68f
7:36am 13 14 mph 1017.5mb 71f 68f
7:30am 13 14 mph 1017.4mb 71f 68f
7:24am 13 14 mph 1017.3mb 71f 68f
7:18am 11 14 mph 1017.3mb 71f 68f
7:12am 13 14 mph 1017.2mb 71f 68f
7:06am 11 13 mph 1017.2mb 71f 68f
7:00am 11 13 mph 1017.1mb 71f 68f
6:54am 11 13 mph 1017.1mb 71f 69f
6:48am 13 14 mph 1017.1mb 71f 68f
6:42am 11 14 mph 1017.1mb 71f 68f
6:36am 13 14 mph 1017mb 71f 69f
6:30am 11 14 mph 1017mb 71f 69f
6:24am 13 14 mph 1017mb 71f 69f
6:18am 14 15 mph 1016.9mb 71f 69f
6:12am 14 15 mph 1016.8mb 71f 69f
6:06am 13 15 mph 1016.8mb 71f 69f
6:00am 11 14 mph 1016.8mb 71f 69f
5:54am  -  1 mph 1016.9mb 71f 65f
5:48am  -  2 mph 1016.9mb 71f 66f
5:42am 2 6 mph 1016.8mb 71f 67f
5:36am  -  3 mph 1016.8mb 71f 68f
5:30am 6 8 mph 1016.7mb 71f 69f
5:24am 9 11 mph 1016.6mb 71f 69f
5:18am 10 11 mph 1016.5mb 71f 70f
5:12am 10 11 mph 1016.6mb 72f 69f
5:06am 10 11 mph 1016.5mb 72f 70f
5:00am 10 13 mph - - -
4:54am 9 10 mph 1016.5mb 72f 70f
4:48am 8 10 mph 1016.4mb 72f 69f
4:42am 9 10 mph 1016.4mb 72f 68f
4:36am 5 7 mph 1016.4mb 72f 66f
4:30am 5 6 mph 1016.4mb 72f 65f
4:24am 5 6 mph 1016.4mb 72f 64f
4:18am  -  2 mph 1016.5mb 72f 64f
4:12am  -  2 mph 1016.5mb 72f 64f
4:06am 3 5 mph 1016.5mb 72f 64f
4:00am 3 5 mph 1016.5mb 72f 64f
3:54am  -  3 mph 1016.4mb 72f 65f
3:48am  -  1 mph 1016.3mb 72f 65f
3:42am 3 5 mph 1016.3mb 72f 65f
3:36am  -  2 mph 1016.3mb 72f 65f
3:30am  -  2 mph 1016.4mb 72f 66f
3:24am  -  2 mph 1016.3mb 72f 67f
3:18am 1 5 mph 1016.2mb 72f 67f
3:12am 1 5 mph 1016.2mb 72f 68f
3:06am 6 8 mph 1016.3mb 72f 69f
3:00am 10 13 mph 1016.3mb 72f 71f
2:54am 7 8 mph 1016.2mb 72f 70f
2:48am 8 13 mph 1016.3mb 72f 70f
2:42am 6 10 mph 1016.3mb 72f 69f
2:36am 3 7 mph 1016.3mb 72f 70f
2:30am 13 14 mph 1016.3mb 72f 72f
2:24am 13 15 mph 1016.3mb 72f 72f
2:18am 14 15 mph 1016.3mb 72f 72f
2:12am 11 13 mph 1016.3mb 72f 72f
2:06am 13 14 mph 1016.3mb 72f 72f
2:00am 13 14 mph 1016.2mb 72f 72f
1:54am 11 14 mph 1016.2mb 72f 71f
1:48am 11 14 mph 1016.2mb 72f 71f
1:42am 13 15 mph 1016.1mb 72f 71f
1:36am 13 15 mph 1016.2mb 72f 72f
1:30am 13 14 mph 1016.2mb 72f 71f
1:24am 13 14 mph 1016.3mb 72f 72f
1:18am 11 14 mph 1016.3mb 72f 72f
1:12am 11 14 mph 1016.3mb 72f 72f
1:06am 13 14 mph 1016.3mb 72f 72f
1:00am 13 14 mph 1016.4mb 72f 72f
12:54am 11 13 mph 1016.4mb 72f 72f
12:48am 11 13 mph 1016.4mb 72f 72f
12:42am 13 14 mph 1016.5mb 72f 72f
12:36am 13 14 mph 1016.4mb 72f 72f
12:30am 11 14 mph 1016.5mb 72f 72f
12:24am 11 13 mph 1016.6mb 72f 72f
12:18am 10 11 mph 1016.6mb 72f 72f
12:12am 11 13 mph 1016.6mb 72f 72f
12:06am 11 13 mph 1016.5mb 72f 72f
12:00am 11 13 mph 1016.6mb 72f 72f
Mon 10/20 11:54pm 11 13 mph 1016.5mb 72f 72f
11:48pm 14 15 mph 1016.5mb 72f 72f
11:42pm 14 15 mph 1016.5mb 73f 73f
11:36pm 13 14 mph 1016.6mb 73f 73f
11:30pm 11 14 mph 1016.7mb 73f 73f
11:24pm 13 14 mph 1016.7mb 73f 73f
11:18pm 10 13 mph 1016.7mb 73f 73f
11:12pm 11 13 mph 1016.8mb 73f 73f
11:06pm 11 13 mph 1016.8mb 73f 73f
11:00pm 10 11 mph 1016.8mb 73f 73f
10:54pm 10 13 mph 1016.8mb 73f 73f
10:48pm 11 13 mph 1016.8mb 73f 73f
10:42pm 11 13 mph 1016.7mb 73f 73f
10:36pm 11 13 mph 1016.7mb 73f 73f
10:30pm 13 14 mph 1016.8mb 73f 73f
10:24pm 13 14 mph 1016.9mb 73f 74f
10:18pm 9 10 mph 1017mb 73f 74f
10:12pm 8 9 mph 1017mb 73f 74f
10:06pm 8 10 mph 1017mb 73f 74f
10:00pm 8 9 mph 1017mb 73f 74f
9:54pm 7 8 mph 1016.9mb 73f 74f
9:48pm 7 8 mph 1016.8mb 73f 74f
8:54pm 6 7 mph 1016.5mb 73f 74f
8:48pm  -  mph 1016.5mb 73f 74f
8:30pm  -  mph - 73f -
8:24pm  -  mph - 73f -
8:18pm  -  mph - 73f -
8:12pm  -  mph - 73f -
8:06pm 6
mph
- - -
8:00pm 5 6 mph - - -
7:54pm 5 6 mph - - -
7:48pm  -  mph - 73f 74f
7:42pm  -  mph - 73f 74f
7:36pm  -  mph - 73f 74f
7:30pm 6 7 mph 1016.4mb 73f 74f
7:24pm 6 7 mph 1016.4mb 73f 74f
7:18pm 5 6 mph 1016.5mb 73f 74f
7:12pm 6
mph
1016.4mb 73f 74f
7:06pm 5 6 mph 1016.4mb 73f 74f
7:00pm 5 6 mph 1016.4mb 73f 74f
6:54pm 5 6 mph 1016.4mb 73f 74f
6:48pm 6 7 mph 1016.3mb 73f 74f
6:42pm 6 7 mph 1016.3mb 73f 74f
6:36pm 6
mph
1016.2mb 73f 74f
6:30pm 6 7 mph 1016.2mb 73f 74f
6:24pm 6 7 mph 1016.2mb 73f 74f
6:18pm 6 7 mph 1016.1mb 73f 74f
6:12pm 7
mph
1016mb 73f 74f
6:06pm 6 7 mph 1016mb 73f 74f
6:00pm 6 7 mph 1016.1mb 73f 74f
5:54pm 6 7 mph 1016.1mb 73f 74f
5:48pm 6 7 mph 1016.1mb 73f 75f
5:42pm 7 9 mph 1016.1mb 73f 75f
5:36pm 8 9 mph 1016.1mb 73f 75f
5:30pm 8 9 mph 1016mb 73f 75f
5:24pm 7 8 mph 1016mb 73f 75f
5:18pm 8 9 mph 1015.9mb 73f 75f
5:12pm 9
mph
1015.9mb 73f 75f
5:06pm 8 9 mph 1015.8mb 73f 75f
5:00pm 8 9 mph 1015.8mb 73f 75f
4:54pm 7 8 mph 1015.9mb 73f 75f
4:48pm 6 7 mph 1015.9mb 73f 75f
4:42pm 5 6 mph 1015.9mb 73f 75f
4:36pm 6
mph
1015.9mb 73f 74f
4:30pm 6 7 mph 1015.9mb 73f 74f
4:24pm 6 7 mph 1015.9mb 73f 74f
4:18pm 6
mph
1015.9mb 73f 74f
4:12pm 7 8 mph 1016.1mb 73f 74f
4:06pm 7 8 mph 1016.1mb 73f 74f
4:00pm 7 9 mph 1016mb 73f 74f
3:54pm 8 9 mph 1016.1mb 73f 74f
3:48pm 7 8 mph 1016.2mb 73f 74f
3:42pm 7 8 mph 1016.2mb 73f 73f
3:36pm 7 8 mph 1016.2mb 73f 73f
3:30pm 8 9 mph 1016.3mb 73f 73f
3:24pm 8 9 mph 1016.3mb 73f 73f
3:18pm 7 9 mph 1016.4mb 73f 73f
3:12pm 8 9 mph 1016.4mb 73f 73f
3:06pm 8 9 mph 1016.4mb 73f 73f
3:00pm 8 9 mph 1016.4mb 73f 73f
2:54pm 9 10 mph 1016.4mb 73f 73f
2:48pm 8 9 mph 1016.5mb 73f 73f
2:42pm 8 10 mph 1016.6mb 73f 73f
2:36pm 9 11 mph 1016.6mb 73f 72f
2:30pm 9 11 mph 1016.6mb 73f 73f
2:24pm 9 11 mph 1016.5mb 73f 73f
2:18pm 9 11 mph 1016.6mb 73f 73f
2:12pm 9 11 mph 1016.6mb 73f 72f
2:06pm 10 11 mph 1016.7mb 73f 72f
2:00pm 10 13 mph 1016.7mb 73f 72f
1:54pm 10 13 mph 1016.8mb 73f 72f
1:48pm 9 11 mph 1016.9mb 73f 72f
1:42pm 9 11 mph 1017mb 73f 72f
1:36pm 9 11 mph 1017mb 72f 72f
1:30pm 10 11 mph 1017.1mb 72f 72f
1:24pm 9 10 mph 1017.3mb 72f 71f
1:18pm 9 10 mph 1017.3mb 72f 71f
1:12pm 9 10 mph 1017.4mb 72f 71f
1:06pm 9 10 mph 1017.6mb 72f 71f
1:00pm 9 11 mph 1017.6mb 72f 71f
12:54pm 9 11 mph 1017.7mb 72f 71f
12:48pm 9 11 mph 1017.7mb 72f 71f
12:42pm 10 13 mph 1017.8mb 72f 71f
12:36pm 10 11 mph 1017.9mb 72f 71f
12:30pm 10 11 mph 1018mb 72f 71f
12:24pm 10 11 mph 1018.1mb 72f 71f
12:18pm 9 10 mph 1018.2mb 72f 71f
12:12pm 10 11 mph 1018.2mb 72f 71f
12:06pm 10 13 mph 1018.2mb 72f 71f
12:00pm 10 13 mph 1018.3mb 72f 71f
11:54am 10 13 mph 1018.3mb 72f 71f
11:48am 10 13 mph 1018.3mb 72f 70f
11:42am 11
mph
1018.4mb 72f 70f
11:36am 10 13 mph 1018.4mb 72f 70f
11:30am 10 11 mph 1018.5mb 72f 70f
11:24am 10 13 mph 1018.6mb 72f 70f
11:18am 10 11 mph 1018.6mb 72f 70f
11:12am 10 11 mph 1018.6mb 72f 70f
11:06am 10 13 mph 1018.6mb 72f 69f
11:00am 10 11 mph 1018.6mb 72f 69f
10:54am 10 13 mph 1018.6mb 72f 69f
10:48am 11 13 mph 1018.6mb 72f 69f
10:42am 10 13 mph 1018.6mb 72f 69f
10:36am 10 11 mph 1018.6mb 72f 69f
10:30am 9 11 mph 1018.7mb 72f 69f
10:24am 11 13 mph 1018.8mb 72f 69f
10:18am 9 10 mph 1018.8mb 72f 69f
10:12am 10 11 mph 1018.8mb 72f 69f
10:06am 10 11 mph 1018.7mb 72f 69f
10:00am 9 11 mph 1018.6mb 71f 69f
9:54am 10 11 mph 1018.6mb 72f 69f